Southeast Texas Regional Airport
KBPT : now visible

Airfield :











YOU CAN JOIN US ON...

 
LOGIN :

Register | Disclaimer

   EN    FR    IT 

 









Legend :    VFR   Marginal VFR   IFR   Intensive IFR   Very Intensive IFR
Visi :
Ceiling :
>= 8 km
>= 3000ft
5 to 8 km
1000 to 3000 ft
1500m to 5 km
500 to 1000 ft
800 to 1500m
200 to 500 ft
< 800m
< 200 ft
Symbols :   Thunderstorms  Fog  Heavy snow  Heavy precipitations  Wind > 20 kt






- Airport Elevation : 15 ft
- IATA code : BPT


KBPT - Southeast Texas Regional

CURRENT METAR :
  • 160753Z AUTO 06007KT 10SM OVC026 19/16 A2981 RMK AO2 SLP094 T01940156

EXPIRED METARs :
  • 160727Z AUTO 10010KT 10SM BKN026 19/16 A2980 RMK AO2 T01890156
  • 160718Z AUTO 10012KT 10SM SCT027 19/15 A2980 RMK AO2 PRESFR T01890150
  • 160653Z AUTO 09010KT 10SM BKN028 19/15 A2982 RMK AO2 SLP097 T01890150
  • 160553Z AUTO 06008KT 10SM SCT031 SCT075 SCT110 19/16 A2986 RMK AO2 SLP110 T01890156 10206 20189 402280161 58008

TAF KBPT
Valid from the 16 at 06:00 until the 17 at 06:00 UTC


160524Z 1606/1706 07010KT P6SM SCT012 BKN025 OVC100
FM161000 06009KT P6SM SCT007 OVC012
FM161300 08012KT P6SM VCSH OVC007
FM161700 11012KT P6SM VCSH OVC015
PROB30 1617/1623 VRB15G25KT 2SM TSRA OVC007CB
FM162300 10010KT 4SM -SHRA BR OVC007
KZHU FIR / North America



MET'MAP, your aeronautical weather chart ! - Copyright ORBIFLY December 2007 - Disclaimer

ORBIFLY MET'MAP TEAM :

Programming & Development : Alexandra Zaïnal
Concept & original design : Baudouin d'Aumeries
Assistance for programming : Marc-Olivier Méhu
Technical & hardware support : Manuel Goepfert

Contact : metmap@orbifly.com




SOURCES & CREDITS :

   NOAA       Earth
Advisory